createdAt,value
2018-03-19T00:00:48.477Z,-1.91
2018-03-19T00:03:16.832Z,-1.87
2018-03-19T00:05:45.240Z,-1.96
2018-03-19T00:08:13.571Z,-1.94
2018-03-19T00:10:41.893Z,-1.94
2018-03-19T00:13:11.028Z,-1.94
2018-03-19T00:15:39.360Z,-1.91
2018-03-19T00:18:07.767Z,-1.96
2018-03-19T00:20:37.004Z,-1.92
2018-03-19T00:23:05.332Z,-1.84
2018-03-19T00:25:34.545Z,-1.80
2018-03-19T00:28:02.872Z,-1.76
2018-03-19T00:30:31.204Z,-1.83
2018-03-19T00:32:59.825Z,-1.87
2018-03-19T00:35:28.148Z,-1.89
2018-03-19T00:37:56.468Z,-1.96
2018-03-19T00:40:24.825Z,-2.05
2018-03-19T00:42:53.176Z,-2.07
2018-03-19T00:45:21.518Z,-2.07
2018-03-19T00:47:49.889Z,-2.05
2018-03-19T00:50:18.423Z,-1.97
2018-03-19T00:52:47.546Z,-1.97
2018-03-19T00:55:16.208Z,-2.09
2018-03-19T00:57:45.302Z,-2.14
2018-03-19T01:00:14.404Z,-2.24
2018-03-19T01:02:43.532Z,-2.17
2018-03-19T01:05:11.869Z,-2.26
2018-03-19T01:07:40.216Z,-2.17
2018-03-19T01:10:08.564Z,-2.32
2018-03-19T01:12:36.957Z,-2.19
2018-03-19T01:15:05.338Z,-2.12
2018-03-19T01:17:33.689Z,-2.16
2018-03-19T01:20:02.026Z,-2.08
2018-03-19T01:22:30.408Z,-2.21
2018-03-19T01:24:59.224Z,-2.10
2018-03-19T01:27:27.552Z,-2.13
2018-03-19T01:29:55.920Z,-2.09
2018-03-19T01:32:24.262Z,-2.05
2018-03-19T01:34:52.695Z,-2.12
2018-03-19T01:37:21.044Z,-2.20
2018-03-19T01:39:49.685Z,-2.04
2018-03-19T01:42:18.813Z,-2.02
2018-03-19T01:44:47.134Z,-1.99
2018-03-19T01:47:15.460Z,-2.05
2018-03-19T01:49:43.828Z,-2.08
2018-03-19T01:52:12.918Z,-2.06
2018-03-19T01:54:42.000Z,-2.07
2018-03-19T01:57:10.373Z,-1.99
2018-03-19T01:59:38.712Z,-2.12
2018-03-19T02:02:07.050Z,-2.18
2018-03-19T02:04:36.194Z,-2.08
2018-03-19T02:07:04.524Z,-2.07
2018-03-19T02:09:32.859Z,-2.00
2018-03-19T02:12:01.261Z,-1.98
2018-03-19T02:14:29.612Z,-2.10
2018-03-19T02:16:57.950Z,-2.08
2018-03-19T02:19:26.296Z,-2.08
2018-03-19T02:21:54.624Z,-2.11
2018-03-19T02:24:23.148Z,-2.16
2018-03-19T02:26:51.465Z,-2.25
2018-03-19T02:29:20.693Z,-2.08
2018-03-19T02:31:49.040Z,-2.13
2018-03-19T02:34:17.369Z,-2.07
2018-03-19T02:36:45.980Z,-1.91
2018-03-19T02:39:14.533Z,-1.88
2018-03-19T02:41:43.143Z,-1.89
2018-03-19T02:44:11.509Z,-1.98
2018-03-19T02:46:39.887Z,-2.12
2018-03-19T02:49:08.334Z,-2.31
2018-03-19T02:51:36.934Z,-2.30
2018-03-19T02:54:05.313Z,-2.31
2018-03-19T02:56:33.838Z,-2.15
2018-03-19T02:59:02.439Z,-2.07
2018-03-19T03:01:31.002Z,-2.11
2018-03-19T03:04:00.049Z,-2.06
2018-03-19T03:06:28.648Z,-2.15
2018-03-19T03:08:58.056Z,-2.29
2018-03-19T03:11:28.495Z,-2.13
2018-03-19T03:13:56.861Z,-2.10
2018-03-19T03:16:25.347Z,-2.06
2018-03-19T03:18:53.735Z,-2.05
2018-03-19T03:21:22.077Z,-2.08
2018-03-19T03:23:50.772Z,-2.23
2018-03-19T03:26:19.150Z,-2.40
2018-03-19T03:28:47.544Z,-2.39
2018-03-19T03:31:16.331Z,-2.35
2018-03-19T03:33:44.769Z,-2.35
2018-03-19T03:36:13.163Z,-2.22
2018-03-19T03:38:42.470Z,-2.08
2018-03-19T03:41:12.294Z,-2.08
2018-03-19T03:43:42.252Z,-2.24
2018-03-19T03:46:10.873Z,-2.26
2018-03-19T03:48:39.638Z,-2.21
2018-03-19T03:51:08.008Z,-2.07
2018-03-19T03:53:36.421Z,-2.09
2018-03-19T03:56:04.746Z,-2.29
2018-03-19T03:58:33.211Z,-2.19
2018-03-19T04:01:01.577Z,-2.14
2018-03-19T04:03:30.412Z,-2.08
2018-03-19T04:05:59.520Z,-2.24
2018-03-19T04:08:27.853Z,-2.22
2018-03-19T04:10:56.215Z,-2.28
2018-03-19T04:13:24.531Z,-2.25
2018-03-19T04:15:52.852Z,-2.25
2018-03-19T04:18:21.272Z,-2.24
2018-03-19T04:20:49.604Z,-2.29
2018-03-19T04:23:17.956Z,-2.26
2018-03-19T04:25:46.537Z,-2.33
2018-03-19T04:28:15.647Z,-2.43
2018-03-19T04:30:43.972Z,-2.35
2018-03-19T04:33:12.300Z,-2.31
2018-03-19T04:35:40.647Z,-2.22
2018-03-19T04:38:08.988Z,-2.35
2018-03-19T04:40:37.457Z,-2.42
2018-03-19T04:43:05.812Z,-2.29
2018-03-19T04:45:34.103Z,-2.39
2018-03-19T04:48:02.500Z,-2.41
2018-03-19T04:50:30.839Z,-2.42
2018-03-19T04:52:59.160Z,-2.45
2018-03-19T04:55:27.605Z,-2.47
2018-03-19T04:57:55.920Z,-2.51
2018-03-19T05:00:24.228Z,-2.57
2018-03-19T05:02:52.599Z,-2.59
2018-03-19T05:05:20.917Z,-2.64
2018-03-19T05:07:49.692Z,-2.75
2018-03-19T05:10:18.800Z,-2.86
2018-03-19T05:12:47.893Z,-2.74
2018-03-19T05:15:17.015Z,-2.73
2018-03-19T05:17:45.408Z,-2.64
2018-03-19T05:20:13.724Z,-2.65
2018-03-19T05:22:42.100Z,-2.70
2018-03-19T05:25:10.415Z,-2.73
2018-03-19T05:27:38.732Z,-2.69
2018-03-19T05:30:07.396Z,-2.65
2018-03-19T05:32:36.175Z,-2.69
2018-03-19T05:35:04.491Z,-2.60
2018-03-19T05:37:32.856Z,-2.59
2018-03-19T05:40:01.207Z,-2.63
2018-03-19T05:42:29.597Z,-2.71
2018-03-19T05:44:57.907Z,-2.64
2018-03-19T05:47:26.223Z,-2.51
2018-03-19T05:49:55.328Z,-2.45
2018-03-19T05:52:23.647Z,-2.44
2018-03-19T05:54:51.999Z,-2.42
2018-03-19T05:57:20.319Z,-2.43
2018-03-19T05:59:48.663Z,-2.42
2018-03-19T06:02:16.976Z,-2.27
2018-03-19T06:04:45.812Z,-2.19
2018-03-19T06:07:14.128Z,-2.17
2018-03-19T06:09:42.467Z,-2.34
2018-03-19T06:12:10.854Z,-2.34
2018-03-19T06:14:40.202Z,-2.20
2018-03-19T06:17:08.572Z,-2.07
2018-03-19T06:19:37.081Z,-1.98
2018-03-19T06:22:06.282Z,-1.97
2018-03-19T06:24:34.682Z,-1.86
2018-03-19T06:27:03.129Z,-1.70
2018-03-19T06:29:31.720Z,-1.74
2018-03-19T06:32:00.219Z,-1.76
2018-03-19T06:34:28.548Z,-1.67
2018-03-19T06:36:56.899Z,-1.71
2018-03-19T06:39:25.234Z,-1.52
2018-03-19T06:41:54.396Z,-1.54
2018-03-19T06:44:23.044Z,-1.43
2018-03-19T06:46:51.391Z,-1.12
2018-03-19T06:49:19.797Z,-0.85
2018-03-19T06:51:48.555Z,-0.66
2018-03-19T06:54:16.909Z,-0.90
2018-03-19T06:56:45.265Z,-0.83
2018-03-19T06:59:13.587Z,-0.73
2018-03-19T07:01:41.960Z,-0.65
2018-03-19T07:04:10.327Z,-0.43
2018-03-19T07:06:39.167Z,-0.29
2018-03-19T07:09:09.953Z,-0.48
2018-03-19T07:11:38.281Z,-0.23
2018-03-19T07:14:06.605Z,-0.53
2018-03-19T07:16:35.069Z,-0.46
2018-03-19T07:19:03.392Z,-0.37
2018-03-19T07:21:32.102Z,-0.38
2018-03-19T07:24:00.456Z,-0.12
2018-03-19T07:26:29.544Z,0.44
2018-03-19T07:28:57.890Z,0.59
2018-03-19T07:31:26.199Z,0.75
2018-03-19T07:33:54.735Z,1.10
2018-03-19T07:36:23.293Z,1.35
2018-03-19T07:38:52.686Z,1.38
2018-03-19T07:41:21.327Z,1.31
2018-03-19T07:43:49.696Z,1.50
2018-03-19T07:46:18.008Z,1.27
2018-03-19T07:48:46.328Z,1.74
2018-03-19T07:51:14.729Z,2.06
2018-03-19T07:53:43.043Z,1.59
2018-03-19T07:56:11.431Z,1.31
2018-03-19T07:58:39.744Z,1.43
2018-03-19T08:01:08.394Z,1.49
2018-03-19T08:03:36.872Z,1.92
2018-03-19T08:06:05.225Z,2.19
2018-03-19T08:08:33.533Z,2.14
2018-03-19T08:11:01.900Z,2.87
2018-03-19T08:13:31.725Z,3.33
2018-03-19T08:16:01.045Z,3.93
2018-03-19T08:18:30.125Z,3.64
2018-03-19T08:20:59.232Z,4.09
2018-03-19T08:23:28.368Z,3.55
2018-03-19T08:25:56.936Z,4.13
2018-03-19T08:28:25.396Z,4.02
2018-03-19T08:30:53.701Z,4.13
2018-03-19T08:33:22.047Z,3.37
2018-03-19T08:35:51.112Z,3.93
2018-03-19T08:38:19.452Z,4.34
2018-03-19T08:40:47.820Z,4.12
2018-03-19T08:43:17.004Z,4.30
2018-03-19T08:45:45.320Z,3.69
2018-03-19T08:48:13.686Z,3.60
2018-03-19T08:50:42.011Z,4.18
2018-03-19T08:53:10.339Z,3.29
2018-03-19T08:55:38.704Z,2.91
2018-03-19T08:58:07.160Z,2.91
2018-03-19T09:00:35.474Z,3.08
2018-03-19T09:03:03.816Z,3.33
2018-03-19T09:05:32.925Z,4.18
2018-03-19T09:08:02.505Z,3.82
2018-03-19T09:10:30.836Z,4.00
2018-03-19T09:12:59.168Z,4.36
2018-03-19T09:15:28.284Z,4.44
2018-03-19T09:17:56.591Z,5.28
2018-03-19T09:20:24.988Z,6.26
2018-03-19T09:22:53.295Z,5.81
2018-03-19T09:25:21.618Z,4.58
2018-03-19T09:27:49.965Z,5.55
2018-03-19T09:30:18.322Z,5.17
2018-03-19T09:32:46.786Z,5.89
2018-03-19T09:35:15.158Z,5.80
2018-03-19T09:37:43.563Z,5.27
2018-03-19T09:40:12.081Z,5.56
2018-03-19T09:42:40.392Z,5.47
2018-03-19T09:45:08.717Z,5.47
2018-03-19T09:47:37.315Z,4.92
2018-03-19T09:50:06.057Z,4.80
2018-03-19T09:52:34.434Z,4.73
2018-03-19T09:55:03.205Z,5.23
2018-03-19T09:57:31.547Z,4.92
2018-03-19T10:00:00.403Z,5.31
2018-03-19T10:02:28.780Z,5.56
2018-03-19T10:04:57.099Z,5.03
2018-03-19T10:07:25.480Z,4.26
2018-03-19T10:09:53.816Z,3.77
2018-03-19T10:12:22.145Z,4.02
2018-03-19T10:14:50.516Z,4.82
2018-03-19T10:17:18.837Z,4.44
2018-03-19T10:19:47.154Z,4.94
2018-03-19T10:22:16.284Z,4.28
2018-03-19T10:24:44.609Z,5.04
2018-03-19T10:27:13.088Z,4.14
2018-03-19T10:29:41.636Z,3.86
2018-03-19T10:32:09.959Z,4.08
2018-03-19T10:34:38.280Z,4.41
2018-03-19T10:37:07.199Z,4.15
2018-03-19T10:39:35.516Z,3.22
2018-03-19T10:42:03.871Z,3.77
2018-03-19T10:44:32.270Z,3.62
2018-03-19T10:47:00.582Z,4.29
2018-03-19T10:49:28.960Z,4.38
2018-03-19T10:51:57.372Z,4.42
2018-03-19T10:54:25.678Z,4.44
2018-03-19T10:56:54.749Z,5.68
2018-03-19T10:59:23.080Z,5.36
2018-03-19T11:01:56.739Z,4.64
2018-03-19T11:04:25.104Z,4.17
2018-03-19T11:06:59.652Z,4.77
2018-03-19T11:09:30.335Z,4.09
2018-03-19T11:11:58.733Z,3.60
2018-03-19T11:14:26.976Z,3.99
2018-03-19T11:16:55.315Z,5.08
2018-03-19T11:19:23.629Z,5.86
2018-03-19T11:21:51.952Z,6.74
2018-03-19T11:24:20.308Z,5.73
2018-03-19T11:26:48.623Z,5.07
2018-03-19T11:29:17.700Z,4.55
2018-03-19T11:31:46.055Z,5.05
2018-03-19T11:34:14.367Z,3.96
2018-03-19T11:36:42.733Z,4.46
2018-03-19T11:39:11.232Z,4.99
2018-03-19T11:41:39.547Z,5.79
2018-03-19T11:44:07.870Z,6.37
2018-03-19T11:46:36.228Z,7.14
2018-03-19T11:49:04.548Z,7.41
2018-03-19T11:51:33.625Z,6.99
2018-03-19T11:54:02.002Z,7.47
2018-03-19T11:56:30.325Z,9.09
2018-03-19T11:58:58.964Z,9.32
2018-03-19T12:01:27.363Z,9.57
2018-03-19T12:03:55.781Z,8.63
2018-03-19T12:06:24.113Z,8.25
2018-03-19T12:08:52.473Z,8.40
2018-03-19T12:11:20.793Z,7.49
2018-03-19T12:13:49.655Z,6.46
2018-03-19T12:16:18.008Z,7.69
2018-03-19T12:18:46.344Z,7.48
2018-03-19T12:21:14.651Z,7.57
2018-03-19T12:23:43.601Z,6.80
2018-03-19T12:26:11.920Z,6.70
2018-03-19T12:28:40.230Z,6.71
2018-03-19T12:31:08.604Z,6.72
2018-03-19T12:33:36.918Z,6.28
2018-03-19T12:36:05.232Z,6.15
2018-03-19T12:38:33.584Z,5.60
2018-03-19T12:41:02.479Z,5.92
2018-03-19T12:43:30.797Z,5.76
2018-03-19T12:45:59.428Z,6.19
2018-03-19T12:48:28.500Z,6.49
2018-03-19T12:50:57.577Z,6.07
2018-03-19T12:53:25.945Z,5.74
2018-03-19T12:55:54.273Z,6.18
2018-03-19T12:58:22.593Z,6.39
2018-03-19T13:00:51.060Z,6.02
2018-03-19T13:03:19.124Z,5.53
2018-03-19T13:05:47.467Z,4.42
2018-03-19T13:08:15.831Z,4.00
2018-03-19T13:10:44.199Z,4.13
2018-03-19T13:13:12.881Z,4.23
2018-03-19T13:15:41.189Z,4.78
2018-03-19T13:18:10.269Z,5.09
2018-03-19T13:20:38.638Z,4.70
2018-03-19T13:23:06.961Z,4.21
2018-03-19T13:25:35.280Z,3.79
2018-03-19T13:28:03.651Z,3.44
2018-03-19T13:30:31.967Z,2.32
2018-03-19T13:33:00.280Z,1.66
2018-03-19T13:35:28.815Z,2.32
2018-03-19T13:37:57.124Z,2.27
2018-03-19T13:40:26.196Z,2.71
2018-03-19T13:42:54.547Z,2.63
2018-03-19T13:45:22.856Z,2.77
2018-03-19T13:47:51.264Z,2.54
2018-03-19T13:50:19.763Z,2.45
2018-03-19T13:52:48.109Z,2.68
2018-03-19T13:55:16.495Z,2.26
2018-03-19T13:57:45.568Z,2.28
2018-03-19T14:00:13.888Z,2.26
2018-03-19T14:02:42.386Z,2.28
2018-03-19T14:05:10.696Z,2.26
2018-03-19T14:07:39.014Z,2.04
2018-03-19T14:10:07.396Z,2.16
2018-03-19T14:12:35.709Z,2.03
2018-03-19T14:15:04.021Z,2.22
2018-03-19T14:17:32.703Z,2.36
2018-03-19T14:20:01.493Z,2.17
2018-03-19T14:22:31.452Z,1.81
2018-03-19T14:25:00.755Z,1.95
2018-03-19T14:27:29.268Z,1.94
2018-03-19T14:29:57.584Z,1.74
2018-03-19T14:32:25.889Z,1.38
2018-03-19T14:34:54.860Z,1.24
2018-03-19T14:37:23.276Z,1.35
2018-03-19T14:39:51.583Z,1.24
2018-03-19T14:42:19.939Z,1.20
2018-03-19T14:44:48.447Z,1.39
2018-03-19T14:47:16.763Z,1.43
2018-03-19T14:49:45.393Z,1.36
2018-03-19T14:52:15.223Z,1.08
2018-03-19T14:54:43.528Z,1.16
2018-03-19T14:57:13.115Z,0.86
2018-03-19T14:59:41.437Z,0.63
2018-03-19T15:02:10.261Z,0.78
2018-03-19T15:04:39.464Z,0.70
2018-03-19T15:07:07.786Z,0.57
2018-03-19T15:09:36.100Z,0.69
2018-03-19T15:12:04.464Z,0.68
2018-03-19T15:14:32.793Z,0.52
2018-03-19T15:17:01.876Z,0.78
2018-03-19T15:19:30.272Z,0.60
2018-03-19T15:21:58.596Z,0.46
2018-03-19T15:24:26.916Z,0.50
2018-03-19T15:26:56.058Z,0.40
2018-03-19T15:29:24.372Z,0.22
2018-03-19T15:31:52.700Z,0.36
2018-03-19T15:34:21.114Z,0.43
2018-03-19T15:36:49.428Z,0.55
2018-03-19T15:39:17.751Z,0.71
2018-03-19T15:41:46.208Z,0.44
2018-03-19T15:44:14.524Z,0.29
2018-03-19T15:46:42.939Z,0.24
2018-03-19T15:49:11.261Z,0.41
2018-03-19T15:51:39.649Z,0.34
2018-03-19T15:54:08.021Z,0.30
2018-03-19T15:56:36.333Z,0.37
2018-03-19T15:59:04.639Z,0.34
2018-03-19T16:01:33.768Z,0.46
2018-03-19T16:04:02.092Z,0.52
2018-03-19T16:06:30.591Z,0.49
2018-03-19T16:08:59.012Z,0.42
2018-03-19T16:11:27.320Z,0.32
2018-03-19T16:13:55.632Z,0.41
2018-03-19T16:16:24.004Z,0.41
2018-03-19T16:18:53.084Z,0.42
2018-03-19T16:21:21.396Z,0.29
2018-03-19T16:23:50.070Z,-0.01
2018-03-19T16:26:19.208Z,0.05
2018-03-19T16:28:47.524Z,0.01
2018-03-19T16:31:16.197Z,0.12
2018-03-19T16:33:44.677Z,0.01
2018-03-19T16:36:12.996Z,-0.04
2018-03-19T16:38:41.391Z,-0.06
2018-03-19T16:41:09.792Z,-0.01
2018-03-19T16:43:38.112Z,-0.23
2018-03-19T16:46:06.472Z,-0.09
2018-03-19T16:48:34.797Z,-0.08
2018-03-19T16:51:03.498Z,-0.08
2018-03-19T16:53:32.227Z,-0.09
2018-03-19T16:56:00.544Z,-0.20
2018-03-19T16:58:28.879Z,-0.18
2018-03-19T17:00:57.640Z,-0.21
2018-03-19T17:03:25.972Z,-0.24
2018-03-19T17:05:54.884Z,-0.21
2018-03-19T17:08:23.271Z,-0.16
2018-03-19T17:10:51.598Z,-0.25
2018-03-19T17:13:19.911Z,-0.32
2018-03-19T17:15:48.281Z,-0.29
2018-03-19T17:18:16.698Z,-0.25
2018-03-19T17:20:45.429Z,-0.26
2018-03-19T17:23:14.432Z,-0.50
2018-03-19T17:25:43.504Z,-0.48
2018-03-19T17:28:12.119Z,-0.51
2018-03-19T17:30:40.560Z,-0.58
2018-03-19T17:33:08.959Z,-0.48
2018-03-19T17:35:37.292Z,-0.52
2018-03-19T17:38:05.779Z,-0.48
2018-03-19T17:40:34.112Z,-0.70
2018-03-19T17:43:02.443Z,-0.68
2018-03-19T17:45:30.828Z,-0.66
2018-03-19T17:47:59.141Z,-0.68
2018-03-19T17:50:28.088Z,-0.79
2018-03-19T17:52:56.417Z,-0.74
2018-03-19T17:55:25.512Z,-0.73
2018-03-19T17:57:54.652Z,-0.84
2018-03-19T18:00:23.827Z,-0.76
2018-03-19T18:02:52.157Z,-0.76
2018-03-19T18:05:20.533Z,-0.73
2018-03-19T18:07:49.547Z,-0.78
2018-03-19T18:10:18.744Z,-0.86
2018-03-19T18:12:47.203Z,-0.84
2018-03-19T18:15:19.712Z,-0.80
2018-03-19T18:17:49.214Z,-0.79
2018-03-19T18:20:18.273Z,-0.70
2018-03-19T18:22:46.784Z,-0.80
2018-03-19T18:25:15.139Z,-0.84
2018-03-19T18:27:43.465Z,-1.00
2018-03-19T18:30:12.199Z,-0.89
2018-03-19T18:32:41.319Z,-0.99
2018-03-19T18:35:10.120Z,-0.97
2018-03-19T18:37:40.314Z,-0.95
2018-03-19T18:40:08.773Z,-1.02
2018-03-19T18:42:37.760Z,-1.06
2018-03-19T18:45:06.960Z,-1.04
2018-03-19T18:47:35.495Z,-0.99
2018-03-19T18:50:04.681Z,-0.98
2018-03-19T18:52:33.145Z,-1.00
2018-03-19T18:55:01.478Z,-1.04
2018-03-19T18:57:29.982Z,-1.10
2018-03-19T18:59:58.424Z,-1.00
2018-03-19T19:02:27.163Z,-0.95
2018-03-19T19:04:55.778Z,-0.90
2018-03-19T19:07:24.604Z,-0.93
2018-03-19T19:09:52.932Z,-0.94
2018-03-19T19:12:22.047Z,-0.92
2018-03-19T19:14:50.568Z,-1.01
2018-03-19T19:17:18.912Z,-0.93
2018-03-19T19:19:50.049Z,-0.93
2018-03-19T19:22:19.979Z,-0.86
2018-03-19T19:24:48.652Z,-1.03
2018-03-19T19:27:18.255Z,-0.98
2018-03-19T19:29:47.352Z,-0.99
2018-03-19T19:32:15.912Z,-0.95
2018-03-19T19:34:44.896Z,-0.95
2018-03-19T19:37:14.631Z,-1.06
2018-03-19T19:39:43.607Z,-1.04
2018-03-19T19:42:12.546Z,-1.02
2018-03-19T19:44:42.352Z,-0.99
2018-03-19T19:47:10.929Z,-0.96
2018-03-19T19:49:41.200Z,-1.01
2018-03-19T19:52:10.466Z,-1.17
2018-03-19T19:54:39.561Z,-1.14
2018-03-19T19:57:08.943Z,-1.22
2018-03-19T19:59:37.529Z,-1.23
2018-03-19T20:02:05.956Z,-1.14
2018-03-19T20:04:34.281Z,-1.03
2018-03-19T20:07:04.767Z,-1.08
2018-03-19T20:09:33.285Z,-1.23
2018-03-19T20:12:03.038Z,-1.10
2018-03-19T20:14:31.639Z,-1.13
2018-03-19T20:17:00.299Z,-1.26
2018-03-19T20:19:29.272Z,-1.11
2018-03-19T20:21:58.132Z,-1.21
2018-03-19T20:24:26.515Z,-1.22
2018-03-19T20:26:55.607Z,-1.35
2018-03-19T20:29:24.740Z,-1.18
2018-03-19T20:31:53.244Z,-1.14
2018-03-19T20:34:21.597Z,-1.19
2018-03-19T20:36:50.668Z,-1.20
2018-03-19T20:39:18.996Z,-1.15
2018-03-19T20:41:47.315Z,-1.13
2018-03-19T20:44:15.689Z,-1.16
2018-03-19T20:46:44.032Z,-1.18
2018-03-19T20:49:12.415Z,-1.15
2018-03-19T20:51:41.317Z,-1.16
2018-03-19T20:54:09.948Z,-1.20
2018-03-19T20:56:38.976Z,-1.16
2018-03-19T20:59:07.348Z,-1.06
2018-03-19T21:01:36.375Z,-1.03
2018-03-19T21:04:04.796Z,-0.97
2018-03-19T21:06:33.895Z,-0.96
2018-03-19T21:09:02.840Z,-0.98
2018-03-19T21:11:32.852Z,-0.94
2018-03-19T21:14:01.661Z,-1.03
2018-03-19T21:16:31.093Z,-1.02
2018-03-19T21:19:00.009Z,-1.00
2018-03-19T21:21:28.796Z,-1.03
2018-03-19T21:23:57.132Z,-1.04
2018-03-19T21:26:25.521Z,-1.10
2018-03-19T21:28:54.680Z,-1.06
2018-03-19T21:31:23.235Z,-1.10
2018-03-19T21:33:51.772Z,-1.14
2018-03-19T21:36:20.452Z,-1.17
2018-03-19T21:38:49.148Z,-1.12
2018-03-19T21:41:18.505Z,-1.07
2018-03-19T21:43:47.738Z,-1.14
2018-03-19T21:46:16.963Z,-1.06
2018-03-19T21:48:45.295Z,-1.12
2018-03-19T21:51:16.705Z,-1.27
2018-03-19T21:53:45.335Z,-1.29
2018-03-19T21:56:16.207Z,-1.19
2018-03-19T21:58:46.540Z,-1.17
2018-03-19T22:01:14.920Z,-1.08
2018-03-19T22:03:43.999Z,-1.03
2018-03-19T22:06:13.044Z,-1.06
2018-03-19T22:08:41.451Z,-1.14
2018-03-19T22:11:14.687Z,-1.27
2018-03-19T22:13:43.144Z,-1.21
2018-03-19T22:16:11.749Z,-1.35
2018-03-19T22:18:40.072Z,-1.33
2018-03-19T22:21:08.456Z,-1.26
2018-03-19T22:23:36.772Z,-1.44
2018-03-19T22:26:05.105Z,-1.41
2018-03-19T22:28:33.480Z,-1.50
2018-03-19T22:31:02.671Z,-1.65
2018-03-19T22:33:30.996Z,-1.60
2018-03-19T22:36:00.560Z,-1.45
2018-03-19T22:38:29.120Z,-1.43
2018-03-19T22:40:57.892Z,-1.44
2018-03-19T22:43:27.011Z,-1.49
2018-03-19T22:45:55.471Z,-1.58
2018-03-19T22:48:24.524Z,-1.56
2018-03-19T22:50:52.880Z,-1.65
2018-03-19T22:53:21.547Z,-1.72
2018-03-19T22:55:50.008Z,-1.83
2018-03-19T22:58:18.337Z,-1.89
2018-03-19T23:00:46.667Z,-1.87
2018-03-19T23:03:15.119Z,-1.93
2018-03-19T23:05:43.447Z,-1.97
2018-03-19T23:08:12.540Z,-2.02
2018-03-19T23:10:42.131Z,-2.00
2018-03-19T23:13:10.461Z,-2.17
2018-03-19T23:15:38.783Z,-2.27
2018-03-19T23:18:07.911Z,-2.38
2018-03-19T23:20:37.015Z,-2.42
2018-03-19T23:23:05.383Z,-2.48
2018-03-19T23:25:33.703Z,-2.58
2018-03-19T23:28:02.025Z,-2.73
2018-03-19T23:30:30.352Z,-2.59
2018-03-19T23:32:58.699Z,-2.72
2018-03-19T23:35:27.779Z,-2.75
2018-03-19T23:37:57.256Z,-2.90
2018-03-19T23:40:25.575Z,-2.92
2018-03-19T23:42:53.899Z,-2.81
2018-03-19T23:45:22.243Z,-2.84
2018-03-19T23:47:50.565Z,-2.88
2018-03-19T23:50:19.312Z,-3.00
2018-03-19T23:52:47.748Z,-3.00
2018-03-19T23:55:16.138Z,-3.08
2018-03-19T23:57:45.145Z,-3.16
